createdAt,value
2022-12-26T00:00:56.377Z,8.13
2022-12-26T00:03:23.869Z,7.87
2022-12-26T00:05:51.377Z,6.97
2022-12-26T00:08:19.069Z,9.00
2022-12-26T00:10:46.425Z,7.50
2022-12-26T00:13:39.384Z,7.53
2022-12-26T00:16:06.243Z,8.47
2022-12-26T00:18:33.458Z,7.77
2022-12-26T00:21:02.588Z,7.30
2022-12-26T00:23:29.815Z,8.83
2022-12-26T00:25:57.115Z,9.80
2022-12-26T00:28:24.340Z,6.30
2022-12-26T00:30:51.702Z,7.10
2022-12-26T00:33:18.978Z,7.63
2022-12-26T00:35:46.300Z,7.30
2022-12-26T00:38:13.593Z,9.00
2022-12-26T00:40:43.396Z,7.87
2022-12-26T00:43:10.841Z,10.60
2022-12-26T00:45:38.127Z,10.37
2022-12-26T00:48:05.538Z,9.10
2022-12-26T00:50:34.788Z,9.40
2022-12-26T00:53:02.525Z,9.23
2022-12-26T00:55:29.739Z,8.67
2022-12-26T00:57:57.102Z,8.50
2022-12-26T01:00:24.382Z,8.10
2022-12-26T01:02:52.218Z,7.10
2022-12-26T01:05:19.608Z,8.53
2022-12-26T01:08:23.381Z,11.37
2022-12-26T01:10:34.128Z,10.03
2022-12-26T01:13:01.383Z,9.17
2022-12-26T01:15:28.708Z,8.47
2022-12-26T01:17:56.097Z,10.73
2022-12-26T01:20:23.461Z,7.90
2022-12-26T01:22:50.778Z,7.93
2022-12-26T01:25:18.292Z,9.30
2022-12-26T01:27:45.585Z,8.17
2022-12-26T01:30:12.902Z,9.93
2022-12-26T01:32:40.159Z,8.70
2022-12-26T01:35:07.795Z,8.53
2022-12-26T01:37:35.108Z,9.23
2022-12-26T01:40:02.683Z,7.40
2022-12-26T01:42:36.360Z,9.60
2022-12-26T01:45:19.019Z,11.10
2022-12-26T01:47:46.504Z,8.37
2022-12-26T01:50:18.635Z,9.57
2022-12-26T01:52:46.708Z,9.10
2022-12-26T01:55:15.492Z,9.47
2022-12-26T01:57:44.970Z,9.30
2022-12-26T02:00:49.745Z,8.53
2022-12-26T02:03:57.088Z,9.07
2022-12-26T02:06:24.406Z,10.40
2022-12-26T02:08:51.780Z,8.97
2022-12-26T02:11:21.371Z,10.60
2022-12-26T02:13:48.676Z,8.63
2022-12-26T02:16:16.957Z,8.47
2022-12-26T02:18:44.366Z,10.47
2022-12-26T02:21:23.862Z,10.73
2022-12-26T02:24:03.413Z,7.83
2022-12-26T02:26:42.749Z,8.93
2022-12-26T02:29:15.853Z,8.87
2022-12-26T02:31:52.330Z,9.07
2022-12-26T02:34:19.601Z,9.93
2022-12-26T02:36:50.134Z,7.97
2022-12-26T02:39:43.687Z,7.50
2022-12-26T02:42:13.376Z,8.73
2022-12-26T02:45:07.288Z,9.33
2022-12-26T02:47:42.615Z,9.60
2022-12-26T02:50:53.315Z,8.03
2022-12-26T02:53:39.133Z,8.90
2022-12-26T02:56:33.747Z,8.07
2022-12-26T02:59:54.477Z,9.33
2022-12-26T03:02:56.821Z,8.80
2022-12-26T03:05:53.727Z,8.80
2022-12-26T03:09:05.745Z,8.43
2022-12-26T03:11:54.562Z,8.03
2022-12-26T03:14:26.374Z,9.97
2022-12-26T03:17:15.337Z,8.03
2022-12-26T03:19:58.501Z,9.07
2022-12-26T03:22:40.531Z,8.17
2022-12-26T03:25:36.369Z,9.00
2022-12-26T03:28:04.241Z,8.50
2022-12-26T03:30:50.521Z,8.00
2022-12-26T03:33:36.638Z,7.37
2022-12-26T03:36:05.335Z,6.23
2022-12-26T03:38:38.836Z,8.23
2022-12-26T03:41:34.021Z,7.57
2022-12-26T03:44:53.325Z,7.17
2022-12-26T03:47:55.026Z,7.03
2022-12-26T03:50:44.858Z,6.67
2022-12-26T03:53:39.733Z,5.33
2022-12-26T03:56:36.750Z,7.33
2022-12-26T03:59:31.346Z,8.80
2022-12-26T04:02:20.921Z,6.93
2022-12-26T04:05:09.011Z,7.53
2022-12-26T04:07:58.746Z,5.63
2022-12-26T04:10:52.978Z,7.60
2022-12-26T04:13:44.024Z,7.57
2022-12-26T04:16:35.089Z,8.10
2022-12-26T04:19:26.457Z,6.33
2022-12-26T04:22:15.676Z,6.57
2022-12-26T04:25:04.672Z,6.10
2022-12-26T04:27:51.653Z,8.50
2022-12-26T04:30:37.599Z,6.43
2022-12-26T04:33:31.115Z,5.80
2022-12-26T04:36:27.339Z,7.03
2022-12-26T04:39:17.103Z,7.03
2022-12-26T04:42:03.918Z,6.80
2022-12-26T04:44:31.596Z,6.70
2022-12-26T04:46:58.895Z,7.83
2022-12-26T04:49:45.138Z,6.23
2022-12-26T04:52:13.673Z,5.17
2022-12-26T04:54:41.239Z,6.80
2022-12-26T04:57:09.270Z,3.87
2022-12-26T04:59:36.499Z,3.17
2022-12-26T05:02:22.546Z,2.10
2022-12-26T05:05:08.968Z,2.70
2022-12-26T05:07:55.551Z,2.20
2022-12-26T05:10:29.223Z,2.40
2022-12-26T05:12:56.815Z,2.07
2022-12-26T05:15:24.391Z,1.60
2022-12-26T05:18:10.273Z,2.13
2022-12-26T05:20:46.534Z,1.87
2022-12-26T05:23:46.327Z,2.03
2022-12-26T05:26:39.300Z,3.33
2022-12-26T05:29:06.679Z,2.27
2022-12-26T05:31:37.279Z,2.60
2022-12-26T05:34:06.056Z,2.27
2022-12-26T05:36:49.653Z,4.17
2022-12-26T05:39:16.955Z,2.30
2022-12-26T05:41:44.310Z,2.00
2022-12-26T05:44:12.063Z,2.07
2022-12-26T05:46:39.845Z,2.10
2022-12-26T05:49:07.471Z,2.50
2022-12-26T05:51:34.884Z,1.97
2022-12-26T05:54:02.741Z,2.73
2022-12-26T05:56:29.956Z,2.40
2022-12-26T05:58:58.153Z,2.10
2022-12-26T06:01:26.001Z,2.67
2022-12-26T06:03:54.995Z,3.00
2022-12-26T06:06:22.725Z,3.40
2022-12-26T06:08:50.838Z,2.37
2022-12-26T06:11:18.704Z,2.30
2022-12-26T06:13:46.375Z,4.53
2022-12-26T06:16:15.028Z,2.07
2022-12-26T06:18:42.518Z,2.23
2022-12-26T06:21:12.124Z,2.67
2022-12-26T06:23:39.811Z,2.80
2022-12-26T06:26:09.579Z,2.67
2022-12-26T06:28:37.289Z,3.03
2022-12-26T06:31:08.833Z,2.30
2022-12-26T06:33:36.271Z,2.27
2022-12-26T06:36:04.576Z,2.60
2022-12-26T06:38:50.607Z,2.97
2022-12-26T06:41:18.986Z,3.03
2022-12-26T06:43:47.201Z,2.60
2022-12-26T06:46:15.756Z,2.20
2022-12-26T06:48:43.354Z,3.33
2022-12-26T06:51:12.378Z,2.93
2022-12-26T06:53:39.835Z,2.57
2022-12-26T06:56:11.358Z,1.90
2022-12-26T06:58:38.843Z,2.13
2022-12-26T07:01:07.310Z,2.33
2022-12-26T07:03:35.665Z,2.20
2022-12-26T07:06:04.269Z,2.83
2022-12-26T07:08:31.566Z,2.80
2022-12-26T07:10:58.863Z,2.37
2022-12-26T07:13:26.136Z,3.07
2022-12-26T07:15:53.526Z,3.07
2022-12-26T07:18:20.839Z,3.07
2022-12-26T07:20:48.684Z,4.97
2022-12-26T07:23:15.924Z,2.80
2022-12-26T07:25:43.245Z,2.80
2022-12-26T07:28:10.536Z,2.70
2022-12-26T07:30:37.867Z,3.57
2022-12-26T07:33:05.220Z,2.37
2022-12-26T07:35:32.684Z,3.03
2022-12-26T07:37:59.988Z,2.50
2022-12-26T07:40:29.261Z,2.33
2022-12-26T07:42:56.963Z,3.67
2022-12-26T07:45:24.434Z,2.43
2022-12-26T07:47:55.421Z,2.10
2022-12-26T07:50:23.195Z,2.17
2022-12-26T07:52:50.556Z,2.10
2022-12-26T07:55:17.813Z,1.87
2022-12-26T07:57:49.470Z,2.83
2022-12-26T08:00:17.061Z,3.27
2022-12-26T08:02:44.537Z,2.23
2022-12-26T08:05:11.893Z,2.73
2022-12-26T08:07:39.377Z,5.03
2022-12-26T08:10:06.930Z,2.80
2022-12-26T08:12:34.669Z,2.50
2022-12-26T08:15:02.066Z,3.13
2022-12-26T08:17:32.773Z,2.13
2022-12-26T08:20:00.179Z,2.33
2022-12-26T08:22:27.705Z,2.63
2022-12-26T08:24:55.102Z,5.20
2022-12-26T08:27:22.400Z,2.63
2022-12-26T08:29:49.860Z,2.40
2022-12-26T08:32:17.094Z,3.63
2022-12-26T08:34:44.414Z,3.73
2022-12-26T08:37:12.035Z,2.20
2022-12-26T08:39:39.499Z,2.50
2022-12-26T08:42:06.820Z,1.87
2022-12-26T08:44:34.221Z,2.13
2022-12-26T08:47:01.510Z,2.60
2022-12-26T08:49:28.724Z,3.07
2022-12-26T08:51:56.039Z,2.63
2022-12-26T08:54:24.144Z,2.20
2022-12-26T08:56:51.606Z,1.73
2022-12-26T08:59:19.047Z,2.43
2022-12-26T09:01:46.616Z,2.27
2022-12-26T09:04:14.301Z,2.20
2022-12-26T09:06:41.627Z,2.20
2022-12-26T09:09:11.355Z,3.00
2022-12-26T09:11:39.300Z,2.60
2022-12-26T09:14:07.086Z,1.93
2022-12-26T09:16:39.315Z,2.40
2022-12-26T09:19:08.306Z,2.33
2022-12-26T09:21:35.702Z,2.27
2022-12-26T09:24:04.237Z,2.00
2022-12-26T09:26:32.018Z,2.13
2022-12-26T09:28:59.431Z,2.47
2022-12-26T09:31:28.280Z,2.60
2022-12-26T09:33:56.021Z,2.77
2022-12-26T09:36:25.400Z,2.27
2022-12-26T09:38:52.943Z,2.47
2022-12-26T09:41:39.117Z,1.80
2022-12-26T09:44:07.023Z,2.10
2022-12-26T09:46:45.022Z,2.13
2022-12-26T09:49:23.548Z,3.33
2022-12-26T09:51:53.823Z,3.23
2022-12-26T09:54:39.971Z,2.43
2022-12-26T09:57:14.842Z,2.00
2022-12-26T09:59:49.780Z,1.90
2022-12-26T10:02:21.113Z,2.00
2022-12-26T10:04:48.753Z,2.30
2022-12-26T10:07:27.682Z,4.47
2022-12-26T10:10:27.649Z,1.93
2022-12-26T10:12:55.319Z,2.30
2022-12-26T10:15:36.888Z,2.53
2022-12-26T10:18:09.000Z,2.40
2022-12-26T10:20:43.990Z,2.67
2022-12-26T10:23:21.777Z,2.90
2022-12-26T10:25:52.081Z,2.37
2022-12-26T10:28:26.344Z,3.87
2022-12-26T10:30:55.347Z,2.67
2022-12-26T10:33:49.219Z,3.30
2022-12-26T10:36:40.109Z,3.13
2022-12-26T10:39:11.804Z,2.03
2022-12-26T10:42:02.712Z,2.20
2022-12-26T10:44:30.140Z,2.17
2022-12-26T10:46:57.611Z,2.27
2022-12-26T10:49:25.932Z,4.40
2022-12-26T10:51:54.025Z,8.70
2022-12-26T10:54:21.663Z,2.27
2022-12-26T10:56:50.565Z,2.67
2022-12-26T10:59:24.755Z,2.63
2022-12-26T11:01:54.123Z,4.67
2022-12-26T11:04:52.863Z,2.30
2022-12-26T11:07:13.976Z,3.13
2022-12-26T11:09:46.099Z,2.23
2022-12-26T11:12:25.908Z,2.43
2022-12-26T11:14:58.325Z,4.27
2022-12-26T11:17:28.756Z,2.30
2022-12-26T11:20:31.802Z,2.47
2022-12-26T11:23:17.355Z,2.13
2022-12-26T11:25:51.989Z,3.20
2022-12-26T11:28:45.640Z,2.80
2022-12-26T11:31:31.360Z,4.53
2022-12-26T11:33:59.902Z,3.63
2022-12-26T11:36:29.426Z,3.20
2022-12-26T11:38:58.084Z,2.93
2022-12-26T11:41:40.204Z,2.27
2022-12-26T11:44:10.219Z,3.77
2022-12-26T11:46:39.004Z,2.97
2022-12-26T11:49:06.895Z,1.60
2022-12-26T11:51:42.390Z,2.93
2022-12-26T11:54:20.630Z,2.77
2022-12-26T11:56:48.033Z,2.43
2022-12-26T11:59:23.656Z,2.03
2022-12-26T12:02:09.946Z,2.00
2022-12-26T12:04:37.238Z,2.27
2022-12-26T12:07:13.700Z,2.30
2022-12-26T12:10:01.997Z,2.23
2022-12-26T12:12:36.575Z,2.00
2022-12-26T12:15:18.676Z,1.97
2022-12-26T12:17:46.054Z,3.03
2022-12-26T12:20:39.363Z,2.20
2022-12-26T12:23:13.751Z,1.60
2022-12-26T12:25:47.082Z,3.00
2022-12-26T12:28:33.077Z,2.07
2022-12-26T12:31:15.097Z,2.13
2022-12-26T12:33:48.769Z,3.10
2022-12-26T12:36:23.316Z,2.47
2022-12-26T12:39:02.888Z,2.90
2022-12-26T12:41:33.332Z,2.00
2022-12-26T12:44:05.596Z,1.60
2022-12-26T12:46:36.012Z,1.90
2022-12-26T12:49:09.647Z,1.83
2022-12-26T12:51:40.042Z,1.73
2022-12-26T12:54:26.112Z,3.27
2022-12-26T12:56:53.496Z,2.23
2022-12-26T12:59:39.286Z,1.90
2022-12-26T13:02:21.661Z,1.60
2022-12-26T13:04:52.249Z,4.53
2022-12-26T13:07:22.510Z,1.90
2022-12-26T13:10:01.068Z,2.30
2022-12-26T13:12:34.949Z,2.27
2022-12-26T13:15:41.003Z,2.03
2022-12-26T13:18:12.174Z,2.47
2022-12-26T13:20:42.695Z,1.10
2022-12-26T13:23:37.304Z,1.53
2022-12-26T13:26:07.585Z,1.10
2022-12-26T13:28:38.808Z,0.97
2022-12-26T13:31:06.282Z,1.90
2022-12-26T13:33:33.684Z,1.73
2022-12-26T13:36:04.926Z,1.03
2022-12-26T13:38:54.511Z,1.47
2022-12-26T13:41:40.632Z,1.63
2022-12-26T13:44:08.853Z,1.30
2022-12-26T13:46:44.494Z,0.93
2022-12-26T13:49:27.451Z,1.07
2022-12-26T13:51:56.777Z,1.37
2022-12-26T13:54:25.086Z,1.20
2022-12-26T13:56:57.269Z,2.53
2022-12-26T13:59:29.735Z,1.30
2022-12-26T14:02:04.588Z,1.47
2022-12-26T14:04:55.289Z,1.63
2022-12-26T14:07:22.568Z,1.80
2022-12-26T14:09:56.164Z,2.23
2022-12-26T14:12:48.856Z,2.43
2022-12-26T14:15:25.447Z,3.53
2022-12-26T14:18:11.642Z,3.80
2022-12-26T14:20:43.635Z,2.20
2022-12-26T14:23:29.532Z,5.63
2022-12-26T14:26:06.319Z,2.67
2022-12-26T14:28:39.457Z,2.80
2022-12-26T14:31:15.845Z,3.80
2022-12-26T14:33:49.838Z,2.20
2022-12-26T14:36:36.003Z,2.20
2022-12-26T14:39:23.350Z,2.43
2022-12-26T14:42:27.717Z,1.80
2022-12-26T14:45:33.363Z,2.30
2022-12-26T14:48:00.962Z,2.47
2022-12-26T14:51:00.464Z,1.63
2022-12-26T14:53:27.718Z,2.50
2022-12-26T14:55:58.114Z,2.83
2022-12-26T14:58:25.581Z,1.50
2022-12-26T15:00:53.263Z,30.90
2022-12-26T15:03:26.899Z,14.83
2022-12-26T15:05:57.105Z,6.63
2022-12-26T15:08:30.317Z,2.10
2022-12-26T15:11:16.716Z,2.00
2022-12-26T15:14:01.137Z,1.50
2022-12-26T15:16:46.989Z,1.60
2022-12-26T15:19:40.690Z,1.40
2022-12-26T15:22:21.674Z,1.67
2022-12-26T15:27:57.984Z,1.70
2022-12-26T15:30:42.288Z,2.07
2022-12-26T15:33:29.888Z,1.90
2022-12-26T15:36:07.143Z,2.37
2022-12-26T15:38:47.152Z,1.90
2022-12-26T15:41:16.891Z,1.90
2022-12-26T15:43:59.277Z,2.27
2022-12-26T15:46:35.296Z,5.77
2022-12-26T15:49:21.659Z,3.37
2022-12-26T15:51:55.389Z,2.63
2022-12-26T15:54:35.451Z,3.03
2022-12-26T15:57:20.328Z,2.30
2022-12-26T15:59:52.532Z,2.17
2022-12-26T16:02:28.772Z,2.47
2022-12-26T16:05:14.573Z,1.90
2022-12-26T16:07:44.792Z,1.90
2022-12-26T16:10:29.229Z,1.70
2022-12-26T16:13:04.651Z,1.83
2022-12-26T16:15:32.754Z,2.20
2022-12-26T16:18:16.967Z,2.07
2022-12-26T16:21:04.913Z,2.93
2022-12-26T16:23:33.555Z,3.57
2022-12-26T16:26:01.076Z,2.80
2022-12-26T16:28:32.025Z,3.27
2022-12-26T16:30:59.784Z,3.37
2022-12-26T16:33:29.996Z,3.20
2022-12-26T16:36:00.987Z,3.37
2022-12-26T16:38:30.641Z,2.60
2022-12-26T16:41:00.320Z,4.80
2022-12-26T16:43:34.461Z,9.70
2022-12-26T16:46:03.814Z,3.20
2022-12-26T16:48:32.905Z,3.00
2022-12-26T16:51:04.530Z,4.37
2022-12-26T16:53:37.872Z,3.83
2022-12-26T16:56:28.530Z,2.70
2022-12-26T16:59:04.796Z,3.77
2022-12-26T17:01:32.466Z,2.80
2022-12-26T17:04:02.052Z,4.03
2022-12-26T17:06:30.876Z,3.00
2022-12-26T17:08:58.801Z,2.93
2022-12-26T17:11:28.365Z,3.43
2022-12-26T17:13:56.147Z,3.97
2022-12-26T17:16:25.244Z,3.90
2022-12-26T17:18:56.461Z,3.43
2022-12-26T17:21:31.818Z,4.63
2022-12-26T17:24:08.216Z,3.23
2022-12-26T17:26:37.064Z,4.17
2022-12-26T17:29:04.930Z,3.30
2022-12-26T17:31:32.190Z,4.33
2022-12-26T17:34:00.111Z,2.67
2022-12-26T17:39:23.132Z,5.13
2022-12-26T17:41:52.108Z,8.63
2022-12-26T17:44:35.678Z,4.13
2022-12-26T17:47:07.484Z,3.90
2022-12-26T17:49:34.684Z,4.30
2022-12-26T17:52:02.252Z,2.60
2022-12-26T17:54:29.529Z,3.97
2022-12-26T17:56:56.816Z,2.40
2022-12-26T17:59:24.196Z,2.47
2022-12-26T18:01:51.687Z,2.90
2022-12-26T18:04:19.321Z,3.03
2022-12-26T18:06:46.651Z,3.10
2022-12-26T18:09:27.639Z,4.13
2022-12-26T18:11:55.328Z,4.03
2022-12-26T18:14:22.872Z,4.37
2022-12-26T18:16:51.286Z,3.20
2022-12-26T18:19:19.879Z,3.07
2022-12-26T18:21:47.250Z,3.10
2022-12-26T18:24:14.783Z,4.07
2022-12-26T18:26:42.280Z,3.07
2022-12-26T18:29:10.445Z,2.77
2022-12-26T18:31:37.916Z,2.87
2022-12-26T18:34:05.434Z,2.50
2022-12-26T18:36:36.948Z,2.30
2022-12-26T18:39:04.379Z,2.20
2022-12-26T18:41:31.813Z,2.23
2022-12-26T18:43:59.132Z,1.70
2022-12-26T18:46:27.629Z,1.63
2022-12-26T18:48:56.798Z,1.50
2022-12-26T18:51:25.397Z,2.23
2022-12-26T18:53:52.711Z,1.90
2022-12-26T18:56:20.835Z,1.97
2022-12-26T18:58:52.540Z,1.67
2022-12-26T19:01:21.423Z,2.23
2022-12-26T19:03:49.091Z,2.10
2022-12-26T19:06:21.950Z,4.20
2022-12-26T19:08:49.219Z,1.80
2022-12-26T19:11:16.437Z,1.73
2022-12-26T19:13:43.405Z,3.70
2022-12-26T19:16:10.581Z,2.07
2022-12-26T19:18:37.884Z,1.40
2022-12-26T19:21:05.003Z,1.50
2022-12-26T19:23:32.021Z,1.30
2022-12-26T19:25:59.010Z,1.30
2022-12-26T19:28:25.806Z,1.77
2022-12-26T19:30:52.782Z,1.47
2022-12-26T19:33:19.744Z,1.30
2022-12-26T19:35:54.519Z,1.30
2022-12-26T19:38:21.416Z,1.33
2022-12-26T19:40:48.316Z,1.23
2022-12-26T19:43:15.384Z,1.07
2022-12-26T19:45:42.391Z,1.30
2022-12-26T19:48:09.467Z,2.13
2022-12-26T19:50:36.520Z,1.67
2022-12-26T19:53:04.202Z,2.23
2022-12-26T19:55:31.137Z,1.10
2022-12-26T19:57:57.973Z,2.00
2022-12-26T20:00:25.059Z,1.40
2022-12-26T20:02:52.149Z,1.03
2022-12-26T20:05:19.022Z,1.60
2022-12-26T20:07:45.893Z,1.30
2022-12-26T20:10:12.764Z,1.67
2022-12-26T20:12:39.619Z,1.23
2022-12-26T20:15:07.084Z,1.13
2022-12-26T20:17:34.256Z,1.13
2022-12-26T20:20:01.233Z,1.63
2022-12-26T20:22:29.131Z,2.23
2022-12-26T20:24:56.037Z,2.40
2022-12-26T20:27:23.046Z,1.00
2022-12-26T20:29:50.258Z,1.40
2022-12-26T20:32:17.145Z,1.90
2022-12-26T20:34:44.418Z,0.90
2022-12-26T20:37:11.324Z,1.23
2022-12-26T20:39:38.252Z,1.20
2022-12-26T20:42:05.462Z,1.17
2022-12-26T20:44:32.785Z,1.37
2022-12-26T20:47:00.127Z,2.33
2022-12-26T20:49:29.045Z,1.23
2022-12-26T20:51:56.343Z,1.27
2022-12-26T20:54:24.814Z,2.10
2022-12-26T20:56:52.124Z,1.53
2022-12-26T20:59:20.205Z,2.33
2022-12-26T21:01:47.647Z,1.73
2022-12-26T21:04:22.147Z,1.40
2022-12-26T21:06:50.397Z,1.63
2022-12-26T21:09:17.853Z,1.60
2022-12-26T21:11:45.673Z,2.63
2022-12-26T21:14:15.012Z,1.73
2022-12-26T21:16:47.059Z,2.07
2022-12-26T21:19:15.885Z,1.93
2022-12-26T21:22:01.952Z,1.90
2022-12-26T21:24:30.527Z,1.90
2022-12-26T21:26:57.900Z,2.10
2022-12-26T21:29:28.577Z,2.57
2022-12-26T21:31:56.326Z,2.33
2022-12-26T21:34:25.382Z,2.70
2022-12-26T21:37:22.363Z,2.17
2022-12-26T21:39:50.641Z,3.13
2022-12-26T21:42:18.164Z,2.70
2022-12-26T21:44:45.397Z,3.17
2022-12-26T21:47:12.369Z,2.83
2022-12-26T21:49:39.346Z,2.77
2022-12-26T21:52:07.106Z,3.60
2022-12-26T21:54:53.066Z,3.27
2022-12-26T21:57:20.748Z,3.93
2022-12-26T21:59:56.563Z,5.63
2022-12-26T22:02:56.941Z,5.13
2022-12-26T22:05:27.504Z,5.53
2022-12-26T22:07:59.614Z,2.73
2022-12-26T22:10:47.810Z,3.50
2022-12-26T22:13:15.218Z,2.93
2022-12-26T22:16:02.710Z,3.03
2022-12-26T22:18:48.354Z,3.40
2022-12-26T22:21:22.708Z,3.80
2022-12-26T22:23:50.595Z,2.07
2022-12-26T22:26:18.426Z,2.03
2022-12-26T22:28:45.840Z,3.60
2022-12-26T22:31:24.110Z,3.13
2022-12-26T22:33:58.558Z,4.87
2022-12-26T22:36:26.429Z,4.10
2022-12-26T22:38:53.813Z,3.67
2022-12-26T22:41:21.491Z,2.50
2022-12-26T22:43:48.820Z,4.60
2022-12-26T22:46:16.193Z,3.53
2022-12-26T22:48:43.496Z,3.40
2022-12-26T22:51:16.576Z,4.23
2022-12-26T22:53:44.006Z,3.70
2022-12-26T22:56:12.255Z,3.43
2022-12-26T22:58:39.635Z,5.97
2022-12-26T23:01:14.433Z,3.50
2022-12-26T23:03:41.938Z,4.27
2022-12-26T23:06:21.684Z,4.83
2022-12-26T23:08:49.973Z,5.13
2022-12-26T23:11:17.633Z,2.97
2022-12-26T23:13:45.110Z,7.50
2022-12-26T23:16:18.964Z,7.30
2022-12-26T23:19:17.199Z,5.53
2022-12-26T23:21:48.665Z,3.10
2022-12-26T23:24:17.680Z,3.63
2022-12-26T23:26:48.539Z,4.67
2022-12-26T23:29:35.617Z,8.13
2022-12-26T23:32:03.220Z,6.13
2022-12-26T23:34:30.867Z,3.47
2022-12-26T23:36:58.113Z,4.90
2022-12-26T23:39:26.313Z,3.27
2022-12-26T23:41:53.757Z,4.37
2022-12-26T23:44:21.012Z,3.27
2022-12-26T23:46:48.635Z,5.13
2022-12-26T23:49:16.666Z,3.33
2022-12-26T23:54:28.625Z,4.77
2022-12-26T23:56:55.986Z,2.90
2022-12-26T23:59:23.378Z,4.93
